AFN weather

Jaffrey Airport Silver Ranch Airport
Jaffrey, New Hampshire, United States

Public forecast

Using degrees Fahrenheit for public forecast. Weather courtesy of forecast.io.

METAR (pilot weather report)

Retrieved 2019/05/24 10:52 UTC (32 minutes ago):

KAFN 241052Z AUTO 19005KT 10SM FEW025 OVC032 13/11 A2970 RMK AO2 SLP060 T01330106

TAF (pilot weather forecast)

Closest forecast is Manchester-Boston Regional Airport, 26.1 nm (48.4 km) ENE. Retrieved 2019/05/24 06:21 UTC (5 hours ago):

TAF KMHT 240520Z 2406/2506 19007KT 2SM BR BKN003 FM240730 21008KT P6SM FEW080 FM241200 30014KT P6SM SCT040 FM241400 32021G31KT P6SM SCT035 FM242200 36019KT P6SM BKN090 FM250200 35007KT P6SM SCT250